Pacific Dawn — 2AGH7 — position and weather

sailwx.info

Track history (hours):
 
Tides and Currents Weather Stations Pressure Air Temp Water Temp Dewpoint Dewpoint Depression Visibility Wind Speed Wind Dir Waves Ship Positions

Pacific Dawn

Last reported at 2015-Apr-18 09:33 UTC. Time now 2015-Apr-21 09:47 UTC.
Position S 26°40' E 153°21'.

Length 245 m; draft 8.4 m.

Type: Ship. MMSI: 235059368.

Date/timePositionNaut miles runAvg speedWind from/ knotsBaromVisibWave heightAir tempDewpointWater temp
2015-Apr-18 09:33S 26°40' E 153°21'1212.0
2015-Apr-18 08:33S 26°48' E 153°11'1414.4
2015-Apr-18 07:33S 27°02' E 153°15'1413.7
2015-Apr-18 06:33S 27°15' E 153°19'1212.2
2015-Apr-18 05:34S 27°24' E 153°09'5 5.1
2015-Apr-18 04:33S 27°26' E 153°04'0 0.0
2015-Apr-18 03:30S 27°26' E 153°04'0 0.0
2015-Apr-18 02:33S 27°26' E 153°04'0 0.0
2015-Apr-18 01:27S 27°26' E 153°04'0 0.0
2015-Apr-18 00:33S 27°26' E 153°04'0 0.0
2015-Apr-17 23:33S 27°26' E 153°04'0 0.0
2015-Apr-17 22:33S 27°26' E 153°04'0 0.0
2015-Apr-17 21:30S 27°26' E 153°04'0 0.0
2015-Apr-17 20:33S 27°26' E 153°04'0 0.0
2015-Apr-17 19:33S 27°26' E 153°04'4 4.1
2015-Apr-17 18:33S 27°25' E 153°08'1110.5
2015-Apr-17 17:33S 27°17' E 153°15'1413.7
2015-Apr-17 16:33S 27°03' E 153°17'1515.2
2015-Apr-17 15:34S 26°50' E 153°09'1111.3
2015-Apr-17 14:33S 26°40' E 153°15'12118.5
2015-Apr-17 08:00S 25°30' E 155°06'   110 / 201019.610.8 1.025.018.825.0
2015-Apr-12 20:00S 22°54' E 164°24'24617.6 190 / 291010.010.8 0.523.518.825.0
2015-Apr-12 06:00S 24°18' E 160°12'39119.1 170 / 281008.910.8 0.526.019.0
2015-Apr-11 09:34S 26°38' E 153°28'1616.1
2015-Apr-11 08:33S 26°43' E 153°11'1414.2
2015-Apr-11 07:33S 26°57' E 153°13'1616.4
2015-Apr-11 06:33S 27°12' E 153°21'1414.4
2015-Apr-11 05:33S 27°23' E 153°10'6 6.3
2015-Apr-11 04:34S 27°27' E 153°04'0 0.3
2015-Apr-11 03:32S 27°26' E 153°04'0 0.0
2015-Apr-11 02:32S 27°26' E 153°04'0 0.0
2015-Apr-11 01:32S 27°26' E 153°04'0 0.0
2015-Apr-11 00:32S 27°26' E 153°04'0 0.0
2015-Apr-10 23:32S 27°26' E 153°04'0 0.0
2015-Apr-10 22:26S 27°26' E 153°04'0 0.0
2015-Apr-10 21:32S 27°26' E 153°04'0 0.0
2015-Apr-10 20:32S 27°26' E 153°04'0 0.0
2015-Apr-10 19:32S 27°26' E 153°04'4 4.5
2015-Apr-10 18:33S 27°25' E 153°09'10 9.7
2015-Apr-10 17:33S 27°17' E 153°15'1413.9
2015-Apr-10 16:33S 27°03' E 153°18'1615.7
2015-Apr-10 15:34S 26°49' E 153°09'1111.2
2015-Apr-10 14:33S 26°41' E 153°17'  
Track history (hours):
 
Tides and Currents Weather Stations Pressure Air Temp Water Temp Dewpoint Dewpoint Depression Visibility Wind Speed Wind Dir Waves Ship Positions

Pacific Dawn

Last reported at 2015-Apr-18 09:33 UTC. Time now 2015-Apr-21 09:47 UTC.
Position S 26°40' E 153°21'.

Length 245 m; draft 8.4 m.

Type: Ship. MMSI: 235059368.

Date/timePositionNaut miles runAvg speedWind from/ knotsBaromVisibWave heightAir tempDewpointWater temp
2015-Apr-18 09:33S 26°40' E 153°21'1212.0
2015-Apr-18 08:33S 26°48' E 153°11'1414.4
2015-Apr-18 07:33S 27°02' E 153°15'1413.7
2015-Apr-18 06:33S 27°15' E 153°19'1212.2
2015-Apr-18 05:34S 27°24' E 153°09'5 5.1
2015-Apr-18 04:33S 27°26' E 153°04'0 0.0
2015-Apr-18 03:30S 27°26' E 153°04'0 0.0
2015-Apr-18 02:33S 27°26' E 153°04'0 0.0
2015-Apr-18 01:27S 27°26' E 153°04'0 0.0
2015-Apr-18 00:33S 27°26' E 153°04'0 0.0
2015-Apr-17 23:33S 27°26' E 153°04'0 0.0
2015-Apr-17 22:33S 27°26' E 153°04'0 0.0
2015-Apr-17 21:30S 27°26' E 153°04'0 0.0
2015-Apr-17 20:33S 27°26' E 153°04'0 0.0
2015-Apr-17 19:33S 27°26' E 153°04'4 4.1
2015-Apr-17 18:33S 27°25' E 153°08'1110.5
2015-Apr-17 17:33S 27°17' E 153°15'1413.7
2015-Apr-17 16:33S 27°03' E 153°17'1515.2
2015-Apr-17 15:34S 26°50' E 153°09'1111.3
2015-Apr-17 14:33S 26°40' E 153°15'12118.5
2015-Apr-17 08:00S 25°30' E 155°06'   110 / 201019.610.8 1.025.018.825.0
2015-Apr-12 20:00S 22°54' E 164°24'24617.6 190 / 291010.010.8 0.523.518.825.0
2015-Apr-12 06:00S 24°18' E 160°12'39119.1 170 / 281008.910.8 0.526.019.0
2015-Apr-11 09:34S 26°38' E 153°28'1616.1
2015-Apr-11 08:33S 26°43' E 153°11'1414.2
2015-Apr-11 07:33S 26°57' E 153°13'1616.4
2015-Apr-11 06:33S 27°12' E 153°21'1414.4
2015-Apr-11 05:33S 27°23' E 153°10'6 6.3
2015-Apr-11 04:34S 27°27' E 153°04'0 0.3
2015-Apr-11 03:32S 27°26' E 153°04'0 0.0
2015-Apr-11 02:32S 27°26' E 153°04'0 0.0
2015-Apr-11 01:32S 27°26' E 153°04'0 0.0
2015-Apr-11 00:32S 27°26' E 153°04'0 0.0
2015-Apr-10 23:32S 27°26' E 153°04'0 0.0
2015-Apr-10 22:26S 27°26' E 153°04'0 0.0
2015-Apr-10 21:32S 27°26' E 153°04'0 0.0
2015-Apr-10 20:32S 27°26' E 153°04'0 0.0
2015-Apr-10 19:32S 27°26' E 153°04'4 4.5
2015-Apr-10 18:33S 27°25' E 153°09'10 9.7
2015-Apr-10 17:33S 27°17' E 153°15'1413.9
2015-Apr-10 16:33S 27°03' E 153°18'1615.7
2015-Apr-10 15:34S 26°49' E 153°09'1111.2
2015-Apr-10 14:33S 26°41' E 153°17'  

Dump ship's entire track history